Horquilla, Argentina
Current Conditions -  °F | °C
As of 5:00 AM on Thursday 18 Dec 2014 (Local Time) from SARE Reporting Station
Overcast Overcast  
Wind Chill: 22°   Ceiling: 600
Heat Index: 22°   Visibility: 6mi
Dew Point: 22°   Wind: 5mph
Humidity: 100%   Direction: 180°S
Pressure: 29.85"   Gusts: NA
Location:  27.53°S, 60.18°W
Report Text: SARE 180800Z 18004KT 9999 OVC006 22/22 Q1011
Loading
Personal Weather Stations






























Interactive Weather Map New forecast layout! Learn more

10-Day Weather Forecast

Advertisements
Track Severe Weather on mobile